Time;durP1;ratioP1;P1;durP2;ratioP2;P2;SDS_P1;SDS_P2;PMS_P1;PMS_P2;Temp;Humidity;BMP_temperature;BMP_pressure;BME280_temperature;BME280_humidity;BME280_pressure;Samples;Min_cycle;Max_cycle;Signal;HPM_P1;HPM_P2
2024/01/21 00:02:14;;;;;;;12.13;7.03;;;-6.40;99.90;;;;;;4987959;28;20050;-87
2024/01/21 00:04:40;;;;;;;21.30;11.93;;;-6.40;99.90;;;;;;4984491;28;20031;-85
2024/01/21 00:07:05;;;;;;;18.93;9.63;;;-6.40;99.90;;;;;;4983476;28;21537;-86
2024/01/21 00:09:30;;;;;;;13.93;8.27;;;-6.40;99.90;;;;;;4985252;28;20050;-85
2024/01/21 00:11:56;;;;;;;12.60;7.53;;;-6.50;99.90;;;;;;4985164;28;20038;-87
2024/01/21 00:14:21;;;;;;;12.20;7.33;;;-6.50;99.90;;;;;;4985819;28;20045;-85
2024/01/21 00:16:47;;;;;;;13.97;7.70;;;-6.50;99.90;;;;;;4967773;28;20031;-85
2024/01/21 00:19:13;;;;;;;14.27;7.37;;;-6.50;99.90;;;;;;4986134;28;20417;-86
2024/01/21 00:21:38;;;;;;;20.57;8.77;;;-6.50;99.90;;;;;;4984898;28;21378;-86
2024/01/21 00:24:05;;;;;;;18.57;10.33;;;-6.60;99.90;;;;;;4983890;28;20042;-85
2024/01/21 00:26:32;;;;;;;16.83;8.80;;;-6.60;99.90;;;;;;4967759;28;20042;-85
2024/01/21 00:29:00;;;;;;;14.33;7.40;;;-6.60;99.90;;;;;;4983629;28;20034;-85
2024/01/21 00:31:27;;;;;;;12.53;7.20;;;-6.70;99.90;;;;;;4965827;28;20058;-85
2024/01/21 00:33:54;;;;;;;17.97;7.80;;;-6.70;99.90;;;;;;4985152;28;20110;-86
2024/01/21 00:36:19;;;;;;;17.07;7.97;;;-6.80;99.90;;;;;;4984833;28;20088;-85
2024/01/21 00:38:45;;;;;;;15.93;7.07;;;-6.80;99.90;;;;;;4987004;28;20302;-86
2024/01/21 00:41:15;;;;;;;20.30;9.67;;;-6.80;99.90;;;;;;4985153;28;20059;-86
2024/01/21 00:43:40;;;;;;;18.17;9.13;;;-6.90;99.90;;;;;;4985850;28;20026;-85
2024/01/21 00:46:07;;;;;;;26.87;13.00;;;-6.90;99.90;;;;;;4984827;28;21062;-84
2024/01/21 00:48:33;;;;;;;24.67;11.83;;;-6.90;99.90;;;;;;4983342;28;20034;-85
2024/01/21 00:50:59;;;;;;;23.10;11.83;;;-7.00;99.90;;;;;;4985783;28;20269;-86
2024/01/21 00:53:24;;;;;;;17.37;9.33;;;-7.00;99.90;;;;;;4984709;28;20329;-85
2024/01/21 00:55:50;;;;;;;17.23;9.63;;;-7.00;99.90;;;;;;4983359;28;20034;-85
2024/01/21 00:58:15;;;;;;;18.47;8.10;;;-7.00;99.90;;;;;;4987458;28;20750;-85
2024/01/21 01:00:41;;;;;;;15.43;8.77;;;-7.00;99.90;;;;;;4985744;28;20111;-86
2024/01/21 01:03:06;;;;;;;19.53;9.57;;;-7.00;99.90;;;;;;4985506;28;20034;-85
2024/01/21 01:05:32;;;;;;;20.23;9.57;;;-7.00;99.90;;;;;;4985667;28;20030;-85
2024/01/21 01:07:59;;;;;;;16.83;8.37;;;-7.10;99.90;;;;;;4985564;28;20117;-85
2024/01/21 01:10:24;;;;;;;15.03;9.50;;;-7.10;99.90;;;;;;4986379;28;20140;-84
2024/01/21 01:12:50;;;;;;;19.27;9.63;;;-7.10;99.90;;;;;;4985996;28;20030;-86
2024/01/21 01:15:15;;;;;;;17.13;9.07;;;-7.10;99.90;;;;;;4986035;28;20122;-86
2024/01/21 01:17:41;;;;;;;18.60;10.37;;;-7.10;99.90;;;;;;4987178;28;20074;-85
2024/01/21 01:20:07;;;;;;;19.53;10.40;;;-7.20;99.90;;;;;;4988717;28;20065;-84
2024/01/21 01:22:32;;;;;;;16.10;8.97;;;-7.20;99.90;;;;;;4986497;28;20042;-85
2024/01/21 01:24:58;;;;;;;20.07;10.33;;;-7.20;99.90;;;;;;4988977;28;20348;-85
2024/01/21 01:27:24;;;;;;;16.03;8.70;;;-7.20;99.90;;;;;;4986806;28;20026;-87
2024/01/21 01:29:50;;;;;;;18.47;9.97;;;-7.20;99.90;;;;;;4986115;28;20022;-85
2024/01/21 01:32:16;;;;;;;17.07;9.60;;;-7.20;99.90;;;;;;4986196;28;20280;-87
2024/01/21 01:34:42;;;;;;;18.07;9.47;;;-7.30;99.90;;;;;;4985691;28;20039;-88
2024/01/21 01:37:09;;;;;;;16.47;9.63;;;-7.30;99.90;;;;;;4985893;28;20034;-87
2024/01/21 01:39:35;;;;;;;19.73;9.80;;;-7.30;99.90;;;;;;4985695;28;20034;-85
2024/01/21 01:42:00;;;;;;;16.37;9.50;;;-7.30;99.90;;;;;;4985338;28;20289;-87
2024/01/21 01:44:26;;;;;;;19.77;9.77;;;-7.40;99.90;;;;;;4986717;28;20289;-86
2024/01/21 01:46:52;;;;;;;18.17;9.03;;;-7.40;99.90;;;;;;4986239;28;20599;-86
2024/01/21 01:49:19;;;;;;;17.97;9.63;;;-7.40;99.90;;;;;;4986100;28;20033;-86
2024/01/21 01:51:45;;;;;;;18.00;9.20;;;-7.40;99.90;;;;;;4986128;28;20026;-85
2024/01/21 01:54:11;;;;;;;15.13;8.67;;;-7.40;99.90;;;;;;4986713;28;20981;-84
2024/01/21 01:56:38;;;;;;;15.20;8.57;;;-7.40;99.90;;;;;;4984666;28;20320;-85
2024/01/21 01:59:08;;;;;;;14.90;8.87;;;-7.40;99.90;;;;;;4986740;28;20030;-87
2024/01/21 02:01:36;;;;;;;15.70;8.93;;;-7.50;99.90;;;;;;4985020;28;20030;-86
2024/01/21 02:04:02;;;;;;;16.43;9.40;;;-7.50;99.90;;;;;;4986683;28;20678;-88
2024/01/21 02:06:28;;;;;;;16.73;9.87;;;-7.50;99.90;;;;;;4986177;28;20126;-86
2024/01/21 02:08:54;;;;;;;18.40;9.30;;;-7.50;99.90;;;;;;4986573;28;20299;-85
2024/01/21 02:11:19;;;;;;;16.80;8.13;;;-7.50;99.90;;;;;;4984805;28;20470;-85
2024/01/21 02:13:45;;;;;;;16.07;8.30;;;-7.50;99.90;;;;;;4982730;28;20022;-85
2024/01/21 02:16:11;;;;;;;14.70;8.77;;;-7.50;99.90;;;;;;4983091;28;20026;-85
2024/01/21 02:18:37;;;;;;;16.57;8.87;;;-7.50;99.90;;;;;;4986710;28;20354;-86
2024/01/21 02:21:03;;;;;;;16.27;8.50;;;-7.50;99.90;;;;;;4989564;28;20081;-85
2024/01/21 02:23:29;;;;;;;18.60;9.20;;;-7.50;99.90;;;;;;4986876;28;20673;-86
2024/01/21 02:25:55;;;;;;;18.00;8.33;;;-7.50;99.90;;;;;;4987494;28;20054;-86
2024/01/21 02:28:20;;;;;;;16.33;8.50;;;-7.60;99.90;;;;;;4986285;28;20345;-86
2024/01/21 02:30:46;;;;;;;14.83;8.70;;;-7.50;99.90;;;;;;4987484;28;20034;-85
2024/01/21 02:33:13;;;;;;;15.00;8.17;;;-7.60;99.90;;;;;;4987411;28;20065;-85
2024/01/21 02:35:38;;;;;;;15.40;8.13;;;-7.60;99.90;;;;;;4986745;28;20035;-86
2024/01/21 02:38:04;;;;;;;17.37;8.13;;;-7.60;99.90;;;;;;4987412;28;20296;-86
2024/01/21 02:40:30;;;;;;;14.63;7.90;;;-7.70;99.90;;;;;;4968841;28;20395;-88
2024/01/21 02:42:55;;;;;;;17.97;8.47;;;-7.70;99.90;;;;;;4986697;28;20106;-84
2024/01/21 02:45:21;;;;;;;15.83;8.17;;;-7.80;99.90;;;;;;4986942;28;20030;-85
2024/01/21 02:47:46;;;;;;;15.97;8.20;;;-7.80;99.90;;;;;;4983503;28;20042;-86
2024/01/21 02:50:12;;;;;;;14.53;8.50;;;-7.80;99.90;;;;;;4985629;28;20045;-87
2024/01/21 02:52:38;;;;;;;14.07;7.63;;;-7.80;99.90;;;;;;4985989;28;20034;-86
2024/01/21 02:55:04;;;;;;;16.87;8.50;;;-7.80;99.90;;;;;;4985889;28;20667;-86
2024/01/21 02:57:29;;;;;;;16.93;8.40;;;-7.90;99.90;;;;;;4984736;28;20043;-85
2024/01/21 02:59:55;;;;;;;19.27;8.77;;;-7.90;99.90;;;;;;4985789;28;20034;-86
2024/01/21 03:02:20;;;;;;;13.73;7.90;;;-8.00;99.90;;;;;;4983868;28;20090;-86
2024/01/21 03:04:46;;;;;;;17.33;8.37;;;-8.00;99.90;;;;;;4984109;28;20037;-84
2024/01/21 03:07:11;;;;;;;12.73;7.67;;;-8.10;99.90;;;;;;4985551;28;20026;-85
2024/01/21 03:09:37;;;;;;;15.67;8.33;;;-8.10;99.90;;;;;;4983739;28;20452;-85
2024/01/21 03:12:02;;;;;;;12.50;7.57;;;-8.20;99.90;;;;;;4983896;28;20035;-86
2024/01/21 03:14:28;;;;;;;13.60;7.73;;;-8.30;99.90;;;;;;4983581;28;20034;-85
2024/01/21 03:16:54;;;;;;;13.37;7.03;;;-8.30;99.90;;;;;;4982742;28;20191;-85
2024/01/21 03:19:19;;;;;;;17.67;8.63;;;-8.40;99.90;;;;;;4984993;28;20078;-85
2024/01/21 03:21:45;;;;;;;15.57;8.93;;;-8.50;99.90;;;;;;4986567;28;20031;-86
2024/01/21 03:24:10;;;;;;;14.33;8.27;;;-8.50;99.90;;;;;;4986692;28;20026;-85
2024/01/21 03:26:36;;;;;;;22.10;9.90;;;-8.50;99.90;;;;;;4986400;28;20053;-85
2024/01/21 03:29:02;;;;;;;14.70;8.20;;;-8.50;99.90;;;;;;4987474;28;20030;-85
2024/01/21 03:31:28;;;;;;;14.63;7.70;;;-8.50;99.90;;;;;;4990776;28;20030;-85
2024/01/21 03:33:53;;;;;;;15.53;7.73;;;-8.50;99.90;;;;;;4988512;28;20031;-85
2024/01/21 03:36:19;;;;;;;12.80;7.17;;;-8.50;99.90;;;;;;4988880;28;20292;-86
2024/01/21 03:38:46;;;;;;;12.97;7.37;;;-8.60;99.90;;;;;;4990692;28;20090;-86
2024/01/21 03:41:12;;;;;;;14.27;8.20;;;-8.60;99.90;;;;;;4986793;28;21021;-85
2024/01/21 03:43:37;;;;;;;11.97;7.47;;;-8.50;99.90;;;;;;4989312;28;20276;-85
2024/01/21 03:46:03;;;;;;;15.90;7.93;;;-8.50;99.90;;;;;;4989597;28;20053;-85
2024/01/21 03:48:29;;;;;;;12.97;7.20;;;-8.50;99.90;;;;;;4989338;28;20037;-87
2024/01/21 03:50:54;;;;;;;13.53;7.40;;;-8.50;99.90;;;;;;4988292;28;20027;-85
2024/01/21 03:53:20;;;;;;;14.97;7.23;;;-8.50;99.90;;;;;;4988716;28;20035;-85
2024/01/21 03:55:46;;;;;;;11.73;6.80;;;-8.50;99.90;;;;;;4987983;28;20743;-85
2024/01/21 03:58:11;;;;;;;13.00;6.20;;;-8.50;99.90;;;;;;4986758;28;20041;-87
2024/01/21 04:00:37;;;;;;;11.30;6.53;;;-8.50;99.90;;;;;;4989229;28;20561;-86
2024/01/21 04:03:02;;;;;;;14.33;7.17;;;-8.60;99.90;;;;;;4987770;28;20037;-86
2024/01/21 04:05:28;;;;;;;9.97;6.17;;;-8.60;99.90;;;;;;4988401;28;20027;-84
2024/01/21 04:07:54;;;;;;;11.87;6.60;;;-8.70;99.90;;;;;;4987668;28;20034;-85
2024/01/21 04:10:19;;;;;;;12.53;7.27;;;-8.70;99.90;;;;;;4988453;28;20038;-87
2024/01/21 04:12:45;;;;;;;12.63;7.47;;;-8.80;99.90;;;;;;4987805;28;20030;-85
2024/01/21 04:15:10;;;;;;;14.90;7.13;;;-8.80;99.90;;;;;;4987267;28;20036;-85
2024/01/21 04:17:36;;;;;;;16.90;8.80;;;-8.80;99.90;;;;;;4987999;28;20035;-84
2024/01/21 04:20:02;;;;;;;14.17;8.00;;;-8.80;99.90;;;;;;4986213;28;20817;-85
2024/01/21 04:22:27;;;;;;;21.40;7.83;;;-8.80;99.90;;;;;;4989240;28;20030;-85
2024/01/21 04:24:53;;;;;;;13.20;7.63;;;-8.80;99.90;;;;;;4988964;28;20356;-85
2024/01/21 04:27:19;;;;;;;14.40;7.97;;;-8.80;99.90;;;;;;4988479;28;20052;-85
2024/01/21 04:29:44;;;;;;;11.77;7.40;;;-8.90;99.90;;;;;;4989821;28;20123;-87
2024/01/21 04:32:10;;;;;;;13.33;6.93;;;-8.90;99.90;;;;;;4987203;28;20023;-85
2024/01/21 04:34:35;;;;;;;13.83;7.43;;;-8.90;99.90;;;;;;4987117;28;20049;-87
2024/01/21 04:37:01;;;;;;;12.47;6.63;;;-8.90;99.90;;;;;;4986522;28;20102;-85
2024/01/21 04:39:26;;;;;;;16.77;7.63;;;-8.90;99.90;;;;;;4987638;28;21230;-85
2024/01/21 04:41:52;;;;;;;17.87;7.60;;;-8.90;99.90;;;;;;4988322;28;20022;-86
2024/01/21 04:44:18;;;;;;;11.63;7.10;;;-9.00;99.90;;;;;;4988835;28;20054;-86
2024/01/21 04:46:43;;;;;;;14.83;6.80;;;-9.00;99.90;;;;;;4987942;28;20034;-88
2024/01/21 04:49:09;;;;;;;14.60;7.17;;;-9.00;99.90;;;;;;4985331;28;20078;-86
2024/01/21 04:51:36;;;;;;;14.30;7.67;;;-9.00;99.90;;;;;;4988492;28;20758;-85
2024/01/21 04:54:02;;;;;;;14.63;7.43;;;-9.00;99.90;;;;;;4989033;28;20517;-87
2024/01/21 04:56:27;;;;;;;12.57;6.77;;;-9.00;99.90;;;;;;4986115;28;20273;-86
2024/01/21 04:58:53;;;;;;;10.67;7.10;;;-9.00;99.90;;;;;;4987380;28;20031;-86
2024/01/21 05:01:22;;;;;;;16.30;7.53;;;-9.00;99.90;;;;;;4972605;28;20031;-86
2024/01/21 05:03:47;;;;;;;14.97;7.33;;;-9.10;99.90;;;;;;4991352;28;21240;-88
2024/01/21 05:06:13;;;;;;;12.73;7.27;;;-9.10;99.90;;;;;;4990357;28;20262;-86
2024/01/21 05:08:39;;;;;;;12.07;6.57;;;-9.10;99.90;;;;;;4990933;28;20042;-86
2024/01/21 05:11:04;;;;;;;12.07;6.73;;;-9.20;99.90;;;;;;4990633;28;20042;-88
2024/01/21 05:13:30;;;;;;;13.83;7.63;;;-9.20;99.90;;;;;;4991319;28;20077;-88
2024/01/21 05:15:55;;;;;;;13.03;6.83;;;-9.20;99.90;;;;;;4989747;28;20106;-86
2024/01/21 05:18:23;;;;;;;17.20;7.57;;;-9.20;99.90;;;;;;4988768;28;20129;-86
2024/01/21 05:20:48;;;;;;;12.53;7.53;;;-9.30;99.90;;;;;;4987999;28;20097;-89
2024/01/21 05:23:14;;;;;;;11.87;7.17;;;-9.30;99.90;;;;;;4990230;28;20265;-87
2024/01/21 05:25:39;;;;;;;12.63;7.50;;;-9.40;99.90;;;;;;4990649;28;20040;-86
2024/01/21 05:28:05;;;;;;;12.10;6.97;;;-9.40;99.90;;;;;;4989194;28;20042;-85
2024/01/21 05:30:31;;;;;;;14.00;7.53;;;-9.40;99.90;;;;;;4989395;28;20039;-86
2024/01/21 05:32:56;;;;;;;11.40;7.43;;;-9.40;99.90;;;;;;4988463;28;20030;-86
2024/01/21 05:35:25;;;;;;;13.53;7.47;;;-9.40;99.90;;;;;;4989631;28;20070;-88
2024/01/21 05:37:51;;;;;;;11.10;7.47;;;-9.40;99.90;;;;;;4972117;28;20053;-88
2024/01/21 05:40:16;;;;;;;12.47;7.47;;;-9.40;99.90;;;;;;4989352;28;20289;-87
2024/01/21 05:42:42;;;;;;;14.13;8.27;;;-9.40;99.90;;;;;;4988615;28;20058;-88
2024/01/21 05:45:08;;;;;;;13.40;8.23;;;-9.40;99.90;;;;;;4989183;28;20041;-86
2024/01/21 05:47:34;;;;;;;15.80;8.40;;;-9.40;99.90;;;;;;4987284;28;20030;-86
2024/01/21 05:49:59;;;;;;;12.10;7.07;;;-9.30;99.90;;;;;;4987427;28;20270;-85
2024/01/21 05:52:25;;;;;;;12.93;7.67;;;-9.40;99.90;;;;;;4986343;28;20041;-85
2024/01/21 05:54:50;;;;;;;12.50;7.80;;;-9.40;99.90;;;;;;4987683;28;20041;-87
2024/01/21 05:57:16;;;;;;;13.13;7.53;;;-9.40;99.90;;;;;;4988735;28;20045;-85
2024/01/21 05:59:42;;;;;;;11.70;7.40;;;-9.40;99.90;;;;;;4988988;28;20045;-88
2024/01/21 06:02:10;;;;;;;14.20;8.67;;;-9.40;99.90;;;;;;4986944;28;20584;-89
2024/01/21 06:04:40;;;;;;;13.97;7.63;;;-9.40;99.90;;;;;;4970463;28;20026;-86
2024/01/21 06:07:06;;;;;;;13.03;7.40;;;-9.40;99.90;;;;;;4988881;28;20274;-86
2024/01/21 06:09:31;;;;;;;14.17;7.80;;;-9.30;99.90;;;;;;4990585;28;20364;-86
2024/01/21 06:11:57;;;;;;;12.60;8.13;;;-9.40;99.90;;;;;;4987544;28;20316;-87
2024/01/21 06:14:22;;;;;;;13.73;7.83;;;-9.30;99.90;;;;;;4990874;28;20038;-87
2024/01/21 06:16:48;;;;;;;15.20;8.30;;;-9.30;99.90;;;;;;4989051;28;20447;-90
2024/01/21 06:19:13;;;;;;;13.47;8.20;;;-9.30;99.90;;;;;;4989522;28;20085;-88
2024/01/21 06:21:43;;;;;;;11.57;7.93;;;-9.30;99.90;;;;;;4989220;28;20093;-87
2024/01/21 06:24:09;;;;;;;15.67;8.63;;;-9.30;99.90;;;;;;4990600;28;20022;-89
2024/01/21 06:26:37;;;;;;;14.77;8.33;;;-9.30;99.90;;;;;;4989979;28;20288;-87
2024/01/21 06:29:03;;;;;;;15.27;9.00;;;-9.30;99.90;;;;;;4992302;28;20282;-87
2024/01/21 06:31:29;;;;;;;15.83;8.40;;;-9.20;99.90;;;;;;4991066;28;20310;-86
2024/01/21 06:33:55;;;;;;;12.40;8.00;;;-9.20;99.90;;;;;;4990902;28;20277;-89
2024/01/21 06:36:22;;;;;;;13.07;7.33;;;-9.20;99.90;;;;;;4990580;28;20039;-85
2024/01/21 06:38:48;;;;;;;14.33;7.83;;;-9.20;99.90;;;;;;4987175;28;20034;-85
2024/01/21 06:41:15;;;;;;;12.07;7.27;;;-9.20;99.90;;;;;;4987655;28;20304;-86
2024/01/21 06:43:40;;;;;;;14.97;8.17;;;-9.20;99.90;;;;;;4988991;28;20117;-85
2024/01/21 06:46:07;;;;;;;14.33;8.50;;;-9.20;99.90;;;;;;4987439;28;20309;-85
2024/01/21 06:48:32;;;;;;;15.17;7.87;;;-9.20;99.90;;;;;;4990074;28;20031;-85
2024/01/21 06:50:58;;;;;;;14.87;8.00;;;-9.20;99.90;;;;;;4985766;28;21627;-87
2024/01/21 06:53:24;;;;;;;17.23;9.07;;;-9.20;99.90;;;;;;4988525;28;20034;-87
2024/01/21 06:55:49;;;;;;;17.90;7.80;;;-9.20;99.90;;;;;;4991198;28;20030;-88
2024/01/21 06:58:15;;;;;;;17.20;9.10;;;-9.20;99.90;;;;;;4989578;28;20034;-86
2024/01/21 07:00:41;;;;;;;14.80;8.47;;;-9.20;99.90;;;;;;4994552;28;20117;-85
2024/01/21 07:03:07;;;;;;;15.10;8.67;;;-9.20;99.90;;;;;;4993506;28;21241;-86
2024/01/21 07:05:32;;;;;;;15.57;8.67;;;-9.10;99.90;;;;;;4992331;28;20054;-85
2024/01/21 07:07:58;;;;;;;16.07;8.83;;;-9.10;99.90;;;;;;4990019;28;20121;-88
2024/01/21 07:10:23;;;;;;;16.43;9.03;;;-9.00;99.90;;;;;;4993480;28;20034;-85
2024/01/21 07:12:49;;;;;;;15.03;8.37;;;-9.10;99.90;;;;;;4991241;28;20157;-86
2024/01/21 07:15:15;;;;;;;20.27;10.13;;;-9.10;99.90;;;;;;4994032;28;20023;-86
2024/01/21 07:17:41;;;;;;;17.57;8.93;;;-9.10;99.90;;;;;;4991957;28;20357;-86
2024/01/21 07:20:15;;;;;;;13.80;8.63;;;-9.00;99.90;;;;;;4994423;28;20030;-88
2024/01/21 07:22:40;;;;;;;12.90;8.47;;;-9.00;99.90;;;;;;4993517;28;20022;-86
2024/01/21 07:25:06;;;;;;;16.23;9.53;;;-8.90;99.90;;;;;;4993416;28;20285;-87
2024/01/21 07:27:34;;;;;;;19.67;10.13;;;-8.90;99.90;;;;;;4993852;28;20072;-88
2024/01/21 07:29:59;;;;;;;17.60;9.60;;;-8.90;99.90;;;;;;4992470;28;20499;-89
2024/01/21 07:32:25;;;;;;;19.13;9.47;;;-8.80;99.90;;;;;;4990451;28;20301;-84
2024/01/21 07:34:50;;;;;;;15.57;8.63;;;-8.80;99.90;;;;;;4985753;28;20033;-87
2024/01/21 07:37:16;;;;;;;16.43;8.90;;;-8.80;99.90;;;;;;4988548;28;20109;-88
2024/01/21 07:39:42;;;;;;;14.40;8.43;;;-8.80;99.90;;;;;;4969646;28;20156;-87
2024/01/21 07:42:07;;;;;;;16.57;9.30;;;-8.70;99.90;;;;;;4967622;28;20031;-88
2024/01/21 07:44:33;;;;;;;19.97;10.27;;;-8.70;99.90;;;;;;4983719;28;20046;-87
2024/01/21 07:46:58;;;;;;;15.50;9.43;;;-8.60;99.90;;;;;;4983652;28;20037;-84
2024/01/21 07:49:24;;;;;;;17.73;10.37;;;-8.60;99.90;;;;;;4979505;28;20033;-85
2024/01/21 07:51:49;;;;;;;21.57;10.60;;;-8.40;99.90;;;;;;4981702;28;20399;-84
2024/01/21 07:54:15;;;;;;;19.63;10.53;;;-8.40;99.90;;;;;;4983578;28;20046;-84
2024/01/21 07:56:40;;;;;;;22.13;11.97;;;-8.30;99.90;;;;;;4984998;28;20709;-85
2024/01/21 07:59:06;;;;;;;20.33;10.57;;;-8.20;99.90;;;;;;4981575;28;20022;-85
2024/01/21 08:01:31;;;;;;;18.80;10.60;;;-8.20;99.90;;;;;;4983784;28;20026;-85
2024/01/21 08:03:57;;;;;;;19.27;11.50;;;-8.10;99.90;;;;;;4980319;28;20034;-85
2024/01/21 08:06:22;;;;;;;21.00;11.63;;;-8.00;99.90;;;;;;4985222;28;20044;-85
2024/01/21 08:08:48;;;;;;;17.00;10.23;;;-7.90;99.90;;;;;;4984611;28;20100;-84
2024/01/21 08:11:14;;;;;;;16.30;8.83;;;-7.90;99.90;;;;;;4975611;28;21426;-84
2024/01/21 08:13:39;;;;;;;19.77;9.83;;;-7.80;99.90;;;;;;4981338;28;20023;-84
2024/01/21 08:16:05;;;;;;;22.00;10.13;;;-7.70;99.90;;;;;;4981196;28;20030;-85
2024/01/21 08:18:31;;;;;;;17.83;9.83;;;-7.70;99.90;;;;;;4980154;28;20084;-85
2024/01/21 08:20:56;;;;;;;20.10;9.70;;;-7.60;99.90;;;;;;4981104;28;21181;-85
2024/01/21 08:23:22;;;;;;;20.10;9.77;;;-7.50;99.90;;;;;;4981926;28;20510;-85
2024/01/21 08:25:47;;;;;;;21.67;9.70;;;-7.40;99.90;;;;;;4983955;28;20038;-86
2024/01/21 08:28:13;;;;;;;18.13;9.30;;;-7.30;99.90;;;;;;4978924;28;20027;-86
2024/01/21 08:30:39;;;;;;;18.77;9.67;;;-7.20;99.90;;;;;;4976744;28;20027;-86
2024/01/21 08:33:04;;;;;;;18.00;9.93;;;-7.10;99.90;;;;;;4975650;28;20721;-86
2024/01/21 08:35:30;;;;;;;18.67;9.20;;;-7.00;99.90;;;;;;4974848;28;20027;-86
2024/01/21 08:37:56;;;;;;;19.70;9.33;;;-6.90;99.90;;;;;;4974608;28;20030;-85
2024/01/21 08:40:22;;;;;;;18.47;9.20;;;-6.80;99.90;;;;;;4975984;28;20038;-86
2024/01/21 08:42:48;;;;;;;19.57;9.63;;;-6.70;99.90;;;;;;4975261;28;20041;-86
2024/01/21 08:45:14;;;;;;;17.60;9.03;;;-6.50;99.90;;;;;;4977379;28;20294;-86
2024/01/21 08:47:39;;;;;;;19.90;8.17;;;-6.40;99.90;;;;;;4960357;28;20041;-86
2024/01/21 08:50:05;;;;;;;15.50;8.93;;;-6.20;99.90;;;;;;4975768;28;21480;-86
2024/01/21 08:52:31;;;;;;;19.53;8.37;;;-6.10;99.90;;;;;;4976935;28;20110;-86
2024/01/21 08:54:56;;;;;;;21.73;10.30;;;-6.00;99.90;;;;;;4958096;28;20037;-86
2024/01/21 08:57:22;;;;;;;20.83;9.73;;;-5.80;99.90;;;;;;4975106;28;20026;-86
2024/01/21 08:59:50;;;;;;;15.63;8.87;;;-5.80;99.90;;;;;;4973912;28;20038;-86
2024/01/21 09:02:17;;;;;;;18.33;8.57;;;-5.70;99.90;;;;;;4976886;28;20122;-86
2024/01/21 09:04:42;;;;;;;11.30;7.30;;;-5.60;99.90;;;;;;4978552;28;20508;-85
2024/01/21 09:07:08;;;;;;;12.63;7.77;;;-5.50;99.90;;;;;;4977492;28;20030;-85
2024/01/21 09:09:34;;;;;;;13.40;7.73;;;-5.40;99.90;;;;;;4975542;28;20035;-87
2024/01/21 09:12:01;;;;;;;13.20;7.07;;;-5.20;99.90;;;;;;4977033;28;20977;-86
2024/01/21 09:14:26;;;;;;;12.97;5.47;;;-5.10;99.90;;;;;;4977208;28;20066;-86
2024/01/21 09:16:52;;;;;;;11.10;5.90;;;-4.90;99.90;;;;;;4957684;28;20224;-86
2024/01/21 09:19:18;;;;;;;10.80;5.70;;;-4.80;99.90;;;;;;4976378;28;20739;-85
2024/01/21 09:21:44;;;;;;;11.93;6.27;;;-4.70;99.90;;;;;;4960569;28;20031;-86
2024/01/21 09:24:11;;;;;;;12.83;5.70;;;-4.50;99.90;;;;;;4975269;28;20034;-86
2024/01/21 09:26:37;;;;;;;12.63;5.00;;;-4.40;99.90;;;;;;4975379;28;20019;-86
2024/01/21 09:29:03;;;;;;;10.93;5.87;;;-4.20;99.90;;;;;;4974044;28;20041;-86
2024/01/21 09:31:29;;;;;;;11.30;6.00;;;-4.10;99.90;;;;;;4960418;28;20027;-86
2024/01/21 09:33:56;;;;;;;10.00;5.47;;;-3.90;99.90;;;;;;4977710;28;20029;-86
2024/01/21 09:36:23;;;;;;;11.57;5.57;;;-3.70;99.90;;;;;;4959077;28;20113;-86
2024/01/21 09:38:53;;;;;;;12.33;6.50;;;-3.60;99.90;;;;;;4976379;28;20045;-86
2024/01/21 09:41:51;;;;;;;10.17;4.77;;;-3.50;99.90;;;;;;4974025;28;20145;-86
2024/01/21 09:44:27;;;;;;;8.37;4.80;;;-3.30;99.90;;;;;;4975495;28;20082;-86
2024/01/21 09:46:55;;;;;;;8.87;5.10;;;-3.20;99.90;;;;;;4975273;28;20098;-86
2024/01/21 09:49:21;;;;;;;10.23;5.10;;;-3.00;99.90;;;;;;4974340;28;20034;-86
2024/01/21 09:51:48;;;;;;;8.00;5.50;;;-2.90;99.90;;;;;;4974605;28;20520;-86
2024/01/21 09:54:14;;;;;;;11.13;5.30;;;-2.80;99.90;;;;;;4976039;28;20042;-82
2024/01/21 09:56:44;;;;;;;15.20;6.60;;;-2.70;99.90;;;;;;4977596;28;20180;-85
2024/01/21 09:59:10;;;;;;;10.77;5.77;;;-2.60;99.90;;;;;;4979155;28;20030;-86
2024/01/21 10:01:37;;;;;;;11.10;6.33;;;-2.50;99.90;;;;;;4976066;28;20057;-88
2024/01/21 10:04:03;;;;;;;15.37;6.20;;;-2.40;99.90;;;;;;4974990;28;20508;-88
2024/01/21 10:06:29;;;;;;;18.50;6.50;;;-2.30;99.90;;;;;;4972748;28;20041;-88
2024/01/21 10:09:10;;;;;;;9.57;5.87;;;-2.20;99.90;;;;;;4973824;28;20750;-87
2024/01/21 10:11:35;;;;;;;10.17;5.37;;;-2.20;99.90;;;;;;4973601;28;20402;-87
2024/01/21 10:14:01;;;;;;;9.83;5.70;;;-2.10;99.90;;;;;;4971827;28;20026;-88
2024/01/21 10:16:26;;;;;;;14.10;5.67;;;-2.00;99.90;;;;;;4979136;28;20034;-86
2024/01/21 10:18:52;;;;;;;11.63;6.30;;;-1.90;99.90;;;;;;4978065;28;20038;-85
2024/01/21 10:21:19;;;;;;;16.80;9.40;;;-1.80;99.90;;;;;;4976993;28;20041;-86
2024/01/21 10:23:46;;;;;;;10.73;6.30;;;-1.70;99.90;;;;;;4978560;28;20073;-85
2024/01/21 10:26:12;;;;;;;23.53;19.33;;;-1.50;99.90;;;;;;4964773;28;20592;-84
2024/01/21 10:28:39;;;;;;;9.33;6.77;;;-1.30;99.90;;;;;;4979976;28;20026;-85
2024/01/21 10:31:06;;;;;;;12.90;6.87;;;-1.10;99.90;;;;;;4982182;28;20030;-85
2024/01/21 10:33:32;;;;;;;16.73;7.50;;;-0.90;99.90;;;;;;4982735;28;20124;-86
2024/01/21 10:36:03;;;;;;;13.20;6.57;;;-0.70;99.90;;;;;;4987310;28;20038;-85
2024/01/21 10:38:33;;;;;;;13.30;7.27;;;-0.50;99.90;;;;;;4986206;28;20174;-84
2024/01/21 10:41:00;;;;;;;10.73;6.67;;;-0.30;99.90;;;;;;4983186;28;20158;-85
2024/01/21 10:43:29;;;;;;;9.17;6.03;;;-0.20;99.90;;;;;;4983179;28;20031;-85
2024/01/21 10:45:56;;;;;;;8.43;5.67;;;0.00;99.90;;;;;;4979672;28;20181;-85
2024/01/21 10:48:22;;;;;;;11.07;5.80;;;0.00;99.90;;;;;;4981055;28;20046;-85
2024/01/21 10:50:51;;;;;;;11.40;5.40;;;0.00;99.90;;;;;;4983773;28;20031;-85
2024/01/21 10:53:17;;;;;;;8.37;5.00;;;0.10;99.90;;;;;;4981980;28;20030;-85
2024/01/21 10:55:44;;;;;;;8.87;5.00;;;0.10;99.90;;;;;;4983431;28;20033;-84
2024/01/21 10:58:10;;;;;;;7.83;5.33;;;0.20;99.90;;;;;;4964862;28;21141;-85
2024/01/21 11:00:39;;;;;;;10.23;5.83;;;0.30;99.90;;;;;;4983753;28;20065;-85
2024/01/21 11:03:25;;;;;;;7.20;5.43;;;0.40;99.90;;;;;;4982460;28;20155;-85
2024/01/21 11:05:53;;;;;;;10.85;5.88;;;0.50;99.90;;;;;;4982238;28;20030;-84
2024/01/21 11:08:23;;;;;;;13.57;7.07;;;0.60;99.90;;;;;;4981925;28;20596;-84
2024/01/21 11:10:59;;;;;;;12.67;6.50;;;0.70;99.90;;;;;;4981069;28;21461;-85
2024/01/21 11:13:48;;;;;;;14.83;6.53;;;0.80;99.90;;;;;;4980872;28;20041;-84
2024/01/21 11:16:26;;;;;;;9.93;6.07;;;0.90;99.90;;;;;;4980346;28;20152;-84
2024/01/21 11:19:09;;;;;;;10.83;5.83;;;1.00;99.90;;;;;;4962393;28;20035;-85
2024/01/21 11:21:41;;;;;;;11.53;6.40;;;1.00;99.90;;;;;;4981380;28;20030;-83
2024/01/21 11:24:12;;;;;;;12.80;6.10;;;1.10;99.90;;;;;;4981585;28;20192;-84
2024/01/21 11:26:41;;;;;;;8.10;5.77;;;1.20;99.90;;;;;;4982915;28;20035;-82
2024/01/21 11:29:29;;;;;;;11.07;5.70;;;1.30;99.90;;;;;;4982958;28;20026;-84
2024/01/21 11:32:00;;;;;;;9.53;4.80;;;1.40;99.90;;;;;;4980419;28;20085;-82
2024/01/21 11:34:28;;;;;;;12.30;6.37;;;1.50;99.90;;;;;;4980563;28;20035;-83
2024/01/21 11:36:54;;;;;;;9.63;5.63;;;1.60;99.90;;;;;;4981942;28;20121;-83
2024/01/21 11:39:21;;;;;;;11.73;6.00;;;1.70;99.90;;;;;;4983495;28;20045;-84
2024/01/21 11:41:48;;;;;;;13.27;6.57;;;1.80;99.90;;;;;;4982664;28;20026;-85
2024/01/21 11:44:19;;;;;;;17.27;8.00;;;1.80;99.90;;;;;;4982440;28;20098;-83
2024/01/21 11:46:46;;;;;;;22.37;7.73;;;1.80;99.90;;;;;;4983742;28;20047;-84
2024/01/21 11:49:13;;;;;;;21.57;8.00;;;1.70;99.90;;;;;;4984276;28;20061;-82
2024/01/21 11:51:38;;;;;;;25.30;10.13;;;1.60;99.90;;;;;;4986864;28;20033;-83
2024/01/21 11:54:05;;;;;;;26.23;8.53;;;1.60;99.90;;;;;;4964164;28;20023;-83
2024/01/21 11:56:31;;;;;;;17.00;10.93;;;1.60;99.90;;;;;;4981652;28;20114;-84
2024/01/21 11:58:57;;;;;;;15.03;13.30;;;1.60;99.90;;;;;;4985143;28;20118;-84
2024/01/21 12:01:24;;;;;;;18.63;9.87;;;1.70;99.90;;;;;;4984788;28;20060;-84
2024/01/21 12:03:50;;;;;;;22.30;10.23;;;1.80;99.90;;;;;;4983193;28;20034;-83
2024/01/21 12:06:16;;;;;;;13.00;5.70;;;1.90;99.90;;;;;;4982762;28;20517;-84
2024/01/21 12:08:44;;;;;;;9.27;5.90;;;2.00;99.90;;;;;;4979047;28;20031;-84
2024/01/21 12:11:10;;;;;;;9.90;5.33;;;2.20;99.90;;;;;;4983185;28;20042;-83
2024/01/21 12:13:39;;;;;;;18.47;5.53;;;2.30;99.90;;;;;;4982578;28;20027;-83
2024/01/21 12:16:08;;;;;;;5.97;3.47;;;2.30;99.90;;;;;;4982139;28;20569;-84
2024/01/21 12:18:41;;;;;;;10.50;4.63;;;2.40;99.90;;;;;;4982935;28;20026;-83
2024/01/21 12:21:10;;;;;;;5.80;3.50;;;2.50;99.90;;;;;;4983568;28;20053;-84
2024/01/21 12:23:40;;;;;;;7.47;3.63;;;2.50;99.90;;;;;;4984562;28;20026;-83
2024/01/21 12:26:06;;;;;;;4.57;3.10;;;2.60;99.90;;;;;;4983535;28;20049;-82
2024/01/21 12:28:31;;;;;;;9.83;4.60;;;2.70;99.90;;;;;;4985017;28;20112;-83
2024/01/21 12:30:58;;;;;;;11.77;5.93;;;2.70;99.90;;;;;;4984768;28;20040;-83
2024/01/21 12:33:25;;;;;;;27.83;13.00;;;2.70;99.90;;;;;;4987003;28;20038;-84
2024/01/21 12:35:50;;;;;;;26.53;8.17;;;2.70;99.90;;;;;;4984567;28;20401;-84